»·PEaware :: AAY273 KPDX-KBOI

AAY273 :: KPDX-KBOI

FLIGHT INFORMATION

Flight Status: Arrived
Operator:
Allegiant Air
More flights by this operator :: More flights under this callsign
Pilot: Alex S. (7186)
Aircraft: MCDONNELL-DOUGLAS MD-88
(MD88)
More flights by this aircraft type
Origin: KPDX Portland Intl
United States
Destination: KBOI Boise Air Terminal/Gowen
United States
More flights between these airports :: More routes between these airports
Route: WHAMY4 IMB HOSTS PARMO2
File this flight plan on PilotEdge
Remarks: PBN / A1B2 DOF / 171223 REG / N930DL OPR / AAY PER / C TALT / KSEA RMK / TCAS SIMBRIEF
Altitude:
(Current/Filed)
29,000ft
Speed:
(Current/Filed)
433kts
Departed: 22-Dec-17 07:28 PM
Arrived: 22-Dec-17 08:14 PM
Distance/Time
Traveled:
298nm/0:46
Distance/Time
To Go:
Arrived

Flight Plot

Page will automatically refresh every two minutes.

Flight plan parsing failed; only flown route is shown


Map Options




Map Legend


Flown Route
Filed Route
Departure Airport
Arrival Airport
Navaid (VOR, NDB)
Fix

Horizontal Profiles

Position Reports

Time Latitude Longitude Heading Altitude Ground
Speed
22-Dec-17 18:42 45.590449 -122.595085 28 22ft 0kts
22-Dec-17 18:43 45.590449 -122.595085 28 22ft 0kts
22-Dec-17 18:44 45.590449 -122.595085 28 22ft 0kts
22-Dec-17 18:45 45.590449 -122.595085 28 22ft 0kts
22-Dec-17 18:46 45.590449 -122.595085 28 22ft 0kts
22-Dec-17 18:47 45.590449 -122.595085 28 22ft 0kts
22-Dec-17 18:48 45.590449 -122.595085 28 22ft 0kts
22-Dec-17 18:49 45.590449 -122.595085 28 22ft 0kts
22-Dec-17 18:50 45.590449 -122.595085 28 22ft 0kts
22-Dec-17 18:51 45.590449 -122.595085 28 22ft 0kts
22-Dec-17 18:52 45.590449 -122.595085 28 22ft 0kts
22-Dec-17 18:53 45.590449 -122.595085 28 22ft 0kts
22-Dec-17 18:54 45.590449 -122.595085 28 22ft 0kts
22-Dec-17 18:55 45.590449 -122.595085 28 22ft 0kts
22-Dec-17 18:56 45.590449 -122.595085 28 22ft 0kts
22-Dec-17 18:57 45.590449 -122.595085 28 22ft 0kts
22-Dec-17 18:58 45.590449 -122.595085 28 22ft 0kts
22-Dec-17 18:59 45.590449 -122.595085 28 22ft 0kts
22-Dec-17 19:00 45.590449 -122.595085 28 22ft 0kts
22-Dec-17 19:01 45.590449 -122.595085 28 22ft 0kts
22-Dec-17 19:02 45.590449 -122.595085 28 22ft 0kts
22-Dec-17 19:03 45.590449 -122.595085 28 22ft 0kts
22-Dec-17 19:04 45.590449 -122.595085 28 22ft 0kts
22-Dec-17 19:05 45.590449 -122.595085 28 22ft 0kts
22-Dec-17 19:06 45.590449 -122.595085 28 22ft 0kts
22-Dec-17 19:07 45.590449 -122.595085 28 22ft 0kts
22-Dec-17 19:12 45.590449 -122.595085 28 22ft 0kts
22-Dec-17 19:13 45.590449 -122.595085 28 22ft 0kts
22-Dec-17 19:14 45.590449 -122.595085 28 22ft 0kts
22-Dec-17 19:15 45.590449 -122.595085 28 22ft 0kts
22-Dec-17 19:16 45.590449 -122.595085 28 22ft 0kts
22-Dec-17 19:17 45.590449 -122.595085 28 22ft 0kts
22-Dec-17 19:18 45.590449 -122.595085 28 22ft 0kts
22-Dec-17 19:19 45.590449 -122.595085 28 22ft 0kts
22-Dec-17 19:20 45.590449 -122.595085 28 22ft 0kts
22-Dec-17 19:21 45.590449 -122.595085 28 22ft 0kts
22-Dec-17 19:22 45.590449 -122.595085 28 22ft 0kts
22-Dec-17 19:23 45.590449 -122.595085 28 22ft 0kts
22-Dec-17 19:24 45.590449 -122.595085 28 22ft 0kts
22-Dec-17 19:25 45.590449 -122.595085 28 22ft 0kts
22-Dec-17 19:26 45.590142 -122.595214 2 22ft 0kts
22-Dec-17 19:27 45.589803 -122.595123 335 22ft 0kts
22-Dec-17 19:28 45.589626 -122.594957 317 22ft 0kts
22-Dec-17 19:29 45.589626 -122.594957 317 22ft 0kts
22-Dec-17 19:30 45.590094 -122.595962 298 22ft 7kts
22-Dec-17 19:31 45.591209 -122.598689 312 22ft 12kts
22-Dec-17 19:32 45.593926 -122.598183 45 22ft 10kts
22-Dec-17 19:33 45.594393 -122.597551 43 22ft 3kts
22-Dec-17 19:34 45.590226 -122.583852 118 23ft 138kts
22-Dec-17 19:35 45.573572 -122.526516 98 2322ft 154kts
22-Dec-17 19:36 45.564251 -122.457300 103 3344ft 230kts
22-Dec-17 19:37 45.547767 -122.365378 101 5740ft 262kts
22-Dec-17 19:38 45.506747 -122.288242 149 8110ft 291kts
22-Dec-17 19:39 45.442837 -122.216966 139 10272ft 319kts
22-Dec-17 19:40 45.371766 -122.127037 140 11850ft 364kts
22-Dec-17 19:41 45.296324 -122.031517 141 14092ft 380kts
22-Dec-17 19:42 45.234195 -121.909996 108 16031ft 407kts
22-Dec-17 19:43 45.195180 -121.758184 112 17856ft 424kts
22-Dec-17 19:44 45.152007 -121.601187 112 19567ft 441kts
22-Dec-17 19:45 45.107150 -121.437929 112 21140ft 458kts
22-Dec-17 19:46 45.061383 -121.269004 112 22528ft 476kts
22-Dec-17 19:47 45.014011 -121.094165 111 23821ft 492kts
22-Dec-17 19:48 44.964687 -120.911589 110 25106ft 507kts
22-Dec-17 19:49 44.916688 -120.732830 109 26262ft 520kts
22-Dec-17 19:50 44.865945 -120.542838 109 27348ft 532kts
22-Dec-17 19:51 44.814552 -120.349151 110 28325ft 543kts
22-Dec-17 19:52 44.763474 -120.153280 109 29192ft 542kts
22-Dec-17 19:53 44.711384 -119.954311 109 29200ft 544kts
22-Dec-17 19:54 44.668277 -119.788709 109 29202ft 544kts
22-Dec-17 19:55 44.612072 -119.591831 113 29207ft 544kts
22-Dec-17 19:56 44.551648 -119.398255 113 29211ft 544kts
22-Dec-17 19:57 44.492670 -119.206567 113 29197ft 544kts
22-Dec-17 19:58 44.433010 -119.013159 113 29201ft 544kts
22-Dec-17 19:59 44.373219 -118.818430 113 29205ft 547kts
22-Dec-17 20:00 44.313449 -118.622630 112 29209ft 547kts
22-Dec-17 20:01 44.254302 -118.427800 112 29213ft 547kts
22-Dec-17 20:02 44.199121 -118.243457 112 29194ft 547kts
22-Dec-17 20:03 44.140623 -118.048302 112 28600ft 547kts
22-Dec-17 20:04 44.083140 -117.855796 112 25867ft 530kts
22-Dec-17 20:05 44.029453 -117.674991 111 23290ft 484kts
22-Dec-17 20:06 43.980371 -117.509492 113 21151ft 448kts
22-Dec-17 20:07 43.930061 -117.353309 113 18827ft 442kts
22-Dec-17 20:08 43.884920 -117.210286 113 16422ft 414kts
22-Dec-17 20:09 43.841542 -117.073707 113 14127ft 366kts
22-Dec-17 20:10 43.802105 -116.951636 114 12531ft 338kts
22-Dec-17 20:11 43.765144 -116.838043 115 10991ft 317kts
22-Dec-17 20:12 43.730284 -116.730222 112 9625ft 302kts
22-Dec-17 20:13 43.697888 -116.629849 111 8185ft 270kts
22-Dec-17 20:14 43.669653 -116.542355 110 6957ft 236kts
22-Dec-17 20:15 43.643973 -116.462443 110 6005ft 224kts
22-Dec-17 20:16 43.619179 -116.387255 117 4904ft 199kts
22-Dec-17 20:17 43.600657 -116.332706 117 4132ft 134kts
22-Dec-17 20:18 43.584760 -116.285941 113 3514ft 137kts
22-Dec-17 20:19 43.568475 -116.238063 112 2829ft 122kts
22-Dec-17 20:20 43.561432 -116.217259 114 2854ft 13kts
22-Dec-17 20:21 43.560582 -116.212448 26 2859ft 9kts
22-Dec-17 20:22 43.560680 -116.212383 26 2859ft 0kts
22-Dec-17 20:23 43.562985 -116.212185 295 2861ft 16kts
22-Dec-17 20:24 43.565113 -116.217265 355 2854ft 10kts
22-Dec-17 20:25 43.567098 -116.220301 26 2849ft 1kts
22-Dec-17 20:26 43.567106 -116.220296 26 2849ft 0kts
22-Dec-17 20:27 43.567106 -116.220296 26 2849ft 0kts
22-Dec-17 20:28 43.567106 -116.220296 26 2849ft 0kts
22-Dec-17 20:29 43.567106 -116.220296 26 2849ft 0kts
22-Dec-17 20:30 43.567106 -116.220296 26 2849ft 0kts

Navigation Log

Ident Type
Flight plan parsing failed, navigation log unavailable